Time;durP1;ratioP1;P1;durP2;ratioP2;P2;SDS_P1;SDS_P2;PMS_P1;PMS_P2;Temp;Humidity;BMP_temperature;BMP_pressure;BME280_temperature;BME280_humidity;BME280_pressure;Samples;Min_cycle;Max_cycle;Signal;HPM_P1;HPM_P2
2023/01/23 00:01:49;;;;;;;7.50;3.28;;;;;;;1.32;100.00;103635.88;5000719;28;20177;-43
2023/01/23 00:04:15;;;;;;;7.53;3.05;;;;;;;1.31;100.00;103631.44;5003822;28;20180;-41
2023/01/23 00:06:41;;;;;;;8.50;2.90;;;;;;;1.33;100.00;103632.38;4997572;28;20211;-41
2023/01/23 00:09:06;;;;;;;5.32;2.90;;;;;;;1.27;100.00;103624.22;4997657;28;20288;-41
2023/01/23 00:11:32;;;;;;;6.57;3.20;;;;;;;1.34;100.00;103617.47;5012926;28;20186;-42
2023/01/23 00:13:59;;;;;;;5.18;2.92;;;;;;;1.25;100.00;103620.59;5002002;28;20201;-42
2023/01/23 00:16:27;;;;;;;6.35;3.38;;;;;;;1.21;100.00;103627.47;5003092;28;20283;-44
2023/01/23 00:18:52;;;;;;;6.35;2.85;;;;;;;1.22;100.00;103631.94;5000834;28;20180;-42
2023/01/23 00:21:21;;;;;;;4.60;3.10;;;;;;;1.24;100.00;103627.59;5006649;28;20192;-42
2023/01/23 00:23:49;;;;;;;6.20;2.92;;;;;;;1.18;100.00;103627.34;5004652;28;20200;-43
2023/01/23 00:26:17;;;;;;;5.18;3.25;;;;;;;1.20;100.00;103623.03;4998828;28;20216;-42
2023/01/23 00:28:44;;;;;;;5.40;2.75;;;;;;;1.18;100.00;103619.41;5000105;28;20185;-43
2023/01/23 00:31:12;;;;;;;8.25;3.22;;;;;;;1.22;100.00;103623.09;4998019;28;20196;-40
2023/01/23 00:33:39;;;;;;;6.45;2.95;;;;;;;1.23;100.00;103615.25;4996381;28;20193;-43
2023/01/23 00:36:05;;;;;;;5.70;2.83;;;;;;;1.23;100.00;103615.25;5005435;28;20251;-42
2023/01/23 00:38:31;;;;;;;10.65;3.53;;;;;;;1.23;100.00;103624.91;4999907;28;20622;-41
2023/01/23 00:40:56;;;;;;;5.07;2.70;;;;;;;1.28;100.00;103609.25;5003139;28;20193;-42
2023/01/23 00:43:23;;;;;;;9.10;3.13;;;;;;;1.20;100.00;103612.47;4999537;28;20224;-45
2023/01/23 00:45:49;;;;;;;5.88;2.90;;;;;;;1.16;100.00;103607.88;5008007;28;20223;-47
2023/01/23 00:48:14;;;;;;;9.60;3.60;;;;;;;1.20;100.00;103608.91;5011375;28;20275;-46
2023/01/23 00:50:40;;;;;;;4.95;2.90;;;;;;;1.21;100.00;103608.97;4997569;28;20276;-47
2023/01/23 00:53:05;;;;;;;5.93;3.25;;;;;;;1.20;100.00;103614.19;4997264;28;20184;-44
2023/01/23 00:55:31;;;;;;;5.35;3.30;;;;;;;1.20;100.00;103625.69;4992051;28;20651;-46
2023/01/23 00:57:57;;;;;;;8.20;3.25;;;;;;;1.23;100.00;103617.88;4994738;28;20591;-45
2023/01/23 01:00:22;;;;;;;5.97;3.03;;;;;;;1.27;100.00;103615.38;4999040;28;20224;-44
2023/01/23 01:02:49;;;;;;;6.18;3.78;;;;;;;1.26;100.00;103619.75;5000533;28;20184;-45
2023/01/23 01:05:16;;;;;;;5.88;3.15;;;;;;;1.29;100.00;103622.56;5000981;28;20300;-44
2023/01/23 01:07:44;;;;;;;6.13;3.20;;;;;;;1.23;100.00;103623.16;4998649;28;20213;-45
2023/01/23 01:10:10;;;;;;;9.95;3.60;;;;;;;1.24;100.00;103630.22;5000902;28;20185;-45
2023/01/23 01:12:36;;;;;;;8.88;3.13;;;;;;;1.27;100.00;103628.56;5000324;28;20640;-44
2023/01/23 01:15:02;;;;;;;7.10;3.45;;;;;;;1.29;100.00;103619.91;5000767;28;20200;-44
2023/01/23 01:17:28;;;;;;;6.97;3.60;;;;;;;1.30;100.00;103626.09;4997964;28;20217;-44
2023/01/23 01:19:54;;;;;;;8.88;3.13;;;;;;;1.29;100.00;103621.63;4999208;28;20207;-47
2023/01/23 01:22:19;;;;;;;6.47;3.60;;;;;;;1.34;100.00;103630.69;5014196;28;20189;-42
2023/01/23 01:24:45;;;;;;;7.97;3.65;;;;;;;1.29;100.00;103627.84;5000884;28;20226;-44
2023/01/23 01:27:10;;;;;;;7.10;3.45;;;;;;;1.24;100.00;103632.88;5001248;28;20208;-46
2023/01/23 01:29:36;;;;;;;7.15;3.75;;;;;;;1.23;100.00;103625.81;5002421;28;20183;-45
2023/01/23 01:32:03;;;;;;;11.13;4.50;;;;;;;1.26;100.00;103629.41;5002836;28;20192;-44
2023/01/23 01:34:29;;;;;;;9.38;3.78;;;;;;;1.27;100.00;103629.50;5000288;28;20260;-47
2023/01/23 01:36:55;;;;;;;6.07;3.78;;;;;;;1.32;100.00;103619.13;5003190;28;20204;-47
2023/01/23 01:39:20;;;;;;;6.00;3.33;;;;;;;1.27;100.00;103624.22;4999901;28;20173;-44
2023/01/23 01:41:46;;;;;;;6.32;4.13;;;;;;;1.28;100.00;103625.13;4995564;28;20181;-45
2023/01/23 01:44:17;;;;;;;6.93;3.90;;;;;;;1.24;100.00;103627.59;5001436;28;20292;-43
2023/01/23 01:46:47;;;;;;;7.63;3.40;;;;;;;1.27;100.00;103633.84;5009578;28;20264;-44
2023/01/23 01:49:24;;;;;;;5.55;3.35;;;;;;;1.32;100.00;103629.69;5003987;28;20199;-46
2023/01/23 01:52:01;;;;;;;9.82;3.63;;;;;;;1.32;100.00;103637.63;5007871;28;20204;-44
2023/01/23 01:54:44;;;;;;;8.13;3.97;;;;;;;1.30;100.00;103634.00;5009936;28;20176;-47
2023/01/23 01:57:15;;;;;;;4.93;3.47;;;;;;;1.31;100.00;103638.44;5000409;28;20204;-45
2023/01/23 02:00:06;;;;;;;7.75;3.75;;;;;;;1.27;100.00;103644.41;5016840;28;20204;-44
2023/01/23 02:02:57;;;;;;;5.82;3.53;;;;;;;1.26;100.00;103639.97;5000406;28;20169;-44
2023/01/23 02:05:26;;;;;;;10.57;4.65;;;;;;;1.22;100.00;103639.84;5008683;28;20247;-45
2023/01/23 02:07:59;;;;;;;7.85;3.88;;;;;;;1.19;100.00;103628.25;5003008;28;20235;-46
2023/01/23 02:10:25;;;;;;;9.00;4.32;;;;;;;1.26;100.00;103642.63;5001147;28;20192;-44
2023/01/23 02:12:51;;;;;;;10.02;4.70;;;;;;;1.19;100.00;103628.25;5002215;28;20247;-45
2023/01/23 02:15:20;;;;;;;8.00;4.00;;;;;;;1.18;100.00;103635.25;5002444;28;20180;-45
2023/01/23 02:17:49;;;;;;;8.23;4.65;;;;;;;1.18;100.00;103635.25;5000802;28;20219;-45
2023/01/23 02:20:26;;;;;;;6.25;4.43;;;;;;;1.17;100.00;103643.09;4997041;28;20364;-45
2023/01/23 02:23:19;;;;;;;8.05;3.78;;;;;;;1.22;100.00;103631.00;5002641;28;20181;-46
2023/01/23 02:25:50;;;;;;;11.65;4.40;;;;;;;1.16;100.00;103633.34;4981272;28;20265;-45
2023/01/23 02:28:16;;;;;;;6.35;3.53;;;;;;;1.18;100.00;103639.63;5002665;28;20177;-43
2023/01/23 02:30:45;;;;;;;8.00;4.30;;;;;;;1.17;100.00;103628.16;4998315;28;20204;-45
2023/01/23 02:33:31;;;;;;;6.53;4.70;;;;;;;1.23;100.00;103635.47;4999106;28;20259;-45
2023/01/23 02:35:57;;;;;;;7.10;4.60;;;;;;;1.20;100.00;103636.25;4999713;28;20216;-46
2023/01/23 02:38:26;;;;;;;5.35;4.50;;;;;;;1.22;100.00;103634.56;5001174;28;20232;-46
2023/01/23 02:40:58;;;;;;;7.38;4.75;;;;;;;1.23;100.00;103639.00;5003315;28;20286;-45
2023/01/23 02:43:33;;;;;;;9.60;4.75;;;;;;;1.24;100.00;103638.16;5003503;28;20191;-46
2023/01/23 02:46:02;;;;;;;6.20;4.30;;;;;;;1.19;100.00;103641.44;5001196;28;20201;-45
2023/01/23 02:48:27;;;;;;;6.85;4.90;;;;;;;1.18;100.00;103632.63;5007129;28;20239;-45
2023/01/23 02:50:53;;;;;;;7.00;4.20;;;;;;;1.21;100.00;103631.84;4998902;28;20180;-44
2023/01/23 02:53:18;;;;;;;8.63;4.00;;;;;;;1.20;100.00;103640.59;5003089;28;20215;-44
2023/01/23 02:55:44;;;;;;;5.78;4.18;;;;;;;1.20;100.00;103654.72;5004803;28;20184;-45
2023/01/23 03:00:55;;;;;;;6.80;4.05;;;;;;;1.23;100.00;103660.13;5008037;28;20647;-46
2023/01/23 03:03:21;;;;;;;6.18;3.97;;;;;;;1.26;100.00;103659.38;5001271;28;20233;-46
2023/01/23 03:05:47;;;;;;;8.80;3.72;;;;;;;1.26;100.00;103669.03;4999617;28;20524;-46
2023/01/23 03:08:12;;;;;;;12.05;3.88;;;;;;;1.27;100.00;103670.81;4998489;28;20640;-45
2023/01/23 03:10:38;;;;;;;8.40;4.10;;;;;;;1.30;100.00;103663.06;4998978;28;20205;-45
2023/01/23 03:13:06;;;;;;;6.90;3.50;;;;;;;1.28;100.00;103672.66;5001397;28;20185;-46
2023/01/23 03:15:34;;;;;;;9.30;3.83;;;;;;;1.34;100.00;103675.59;4993205;28;20181;-46
2023/01/23 03:18:01;;;;;;;7.47;4.68;;;;;;;1.30;100.00;103674.53;4996024;28;20209;-45
2023/01/23 03:20:27;;;;;;;4.35;3.38;;;;;;;1.33;100.00;103668.47;4999104;28;20698;-44
2023/01/23 03:22:53;;;;;;;10.90;3.30;;;;;;;1.35;100.00;103672.09;4999798;28;20189;-49
2023/01/23 03:25:19;;;;;;;9.15;3.28;;;;;;;1.31;100.00;103673.72;5008053;28;20525;-46
2023/01/23 03:27:45;;;;;;;6.18;3.38;;;;;;;1.34;100.00;103670.28;5000017;28;20667;-45
2023/01/23 03:30:15;;;;;;;8.30;4.03;;;;;;;1.37;100.00;103671.31;5001659;28;20278;-46
2023/01/23 03:32:42;;;;;;;9.98;3.90;;;;;;;1.41;100.00;103667.09;4990671;28;20180;-48
2023/01/23 03:35:12;;;;;;;4.97;3.47;;;;;;;1.36;100.00;103664.25;5002446;28;20664;-46
2023/01/23 03:37:39;;;;;;;4.45;3.30;;;;;;;1.33;100.00;103668.47;4999682;28;20266;-46
2023/01/23 03:42:52;;;;;;;6.78;3.53;;;;;;;1.32;100.00;103672.84;5003519;28;20189;-45
2023/01/23 03:45:24;;;;;;;11.55;4.03;;;;;;;1.32;100.00;103666.69;5004448;28;20211;-45
2023/01/23 03:47:50;;;;;;;7.45;3.47;;;;;;;1.37;100.00;103673.06;5009987;28;20220;-47
2023/01/23 03:50:15;;;;;;;6.65;3.47;;;;;;;1.35;100.00;103661.53;5000828;28;20193;-45
2023/01/23 03:52:41;;;;;;;7.88;4.00;;;;;;;1.35;100.00;103672.09;5003572;28;20267;-44
2023/01/23 03:55:07;;;;;;;6.90;3.72;;;;;;;1.38;100.00;103681.06;5000660;28;20184;-46
2023/01/23 03:57:34;;;;;;;6.78;3.80;;;;;;;1.37;100.00;103673.06;5001984;28;20312;-45
2023/01/23 04:00:12;;;;;;;5.90;3.75;;;;;;;1.42;100.00;103668.88;4993522;28;20212;-44
2023/01/23 04:02:44;;;;;;;11.18;4.25;;;;;;;1.40;100.00;103678.47;4995575;28;20652;-44
2023/01/23 04:05:12;;;;;;;9.40;4.50;;;;;;;1.44;100.00;103672.50;5004788;28;20690;-48
2023/01/23 04:07:38;;;;;;;6.97;3.70;;;;;;;1.42;100.00;103683.03;4998325;28;20201;-46
2023/01/23 04:10:04;;;;;;;7.15;4.15;;;;;;;1.46;100.00;103680.50;4999529;28;20185;-45
2023/01/23 04:12:29;;;;;;;5.47;3.88;;;;;;;1.53;100.00;103675.59;5000986;28;20176;-43
2023/01/23 04:14:55;;;;;;;7.50;3.97;;;;;;;1.46;100.00;103678.75;4999260;28;20185;-44
2023/01/23 04:17:21;;;;;;;6.90;3.90;;;;;;;1.45;100.00;103674.31;4996432;28;20216;-46
2023/01/23 04:19:47;;;;;;;7.28;3.78;;;;;;;1.43;100.00;103671.59;5000354;28;20205;-46
2023/01/23 04:22:13;;;;;;;6.32;3.90;;;;;;;1.42;100.00;103669.81;4999458;28;20231;-44
2023/01/23 04:24:45;;;;;;;3.88;3.47;;;;;;;1.44;100.00;103683.06;5003107;28;20185;-45
2023/01/23 04:27:10;;;;;;;6.88;3.60;;;;;;;1.47;100.00;103688.50;4996285;28;20520;-46
2023/01/23 04:29:36;;;;;;;6.22;3.60;;;;;;;1.47;100.00;103690.25;5001123;28;20182;-45
2023/01/23 04:32:03;;;;;;;7.40;3.33;;;;;;;1.45;100.00;103682.25;5000576;28;20588;-42
2023/01/23 04:34:31;;;;;;;5.57;3.47;;;;;;;1.49;100.00;103693.84;5000827;28;20176;-43
2023/01/23 04:36:57;;;;;;;9.50;3.70;;;;;;;1.49;100.00;103692.13;5003118;28;20284;-46
2023/01/23 04:39:23;;;;;;;6.38;3.97;;;;;;;1.47;100.00;103683.22;4997236;28;20189;-45
2023/01/23 04:41:49;;;;;;;6.47;3.85;;;;;;;1.49;100.00;103686.84;5006290;28;20175;-44
2023/01/23 04:44:26;;;;;;;7.78;3.25;;;;;;;1.45;100.00;103690.19;5001233;28;20212;-42
2023/01/23 04:47:11;;;;;;;4.57;3.40;;;;;;;1.48;100.00;103682.38;4996012;28;20209;-45
2023/01/23 04:49:38;;;;;;;9.60;3.83;;;;;;;1.54;100.00;103687.94;4991126;28;20247;-44
2023/01/23 04:52:04;;;;;;;7.60;4.13;;;;;;;1.46;100.00;103691.06;5005899;28;20888;-44
2023/01/23 04:54:33;;;;;;;6.85;3.92;;;;;;;1.46;100.00;103688.44;4990246;28;20198;-44
2023/01/23 04:56:59;;;;;;;7.13;4.07;;;;;;;1.49;100.00;103688.56;5000195;28;20216;-46
2023/01/23 04:59:25;;;;;;;5.28;4.57;;;;;;;1.49;100.00;103691.19;5000931;28;20192;-47
2023/01/23 05:01:51;;;;;;;5.75;4.25;;;;;;;1.49;100.00;103702.69;4999909;28;20227;-47
2023/01/23 05:04:17;;;;;;;5.75;3.90;;;;;;;1.49;100.00;103712.34;4983018;28;20283;-47
2023/01/23 05:06:44;;;;;;;7.28;3.70;;;;;;;1.49;100.00;103715.91;4999757;28;20217;-45
2023/01/23 05:09:12;;;;;;;8.77;4.45;;;;;;;1.51;100.00;103716.88;4999780;28;20273;-47
2023/01/23 05:11:44;;;;;;;8.27;3.55;;;;;;;1.50;100.00;103714.16;4999636;28;20169;-43
2023/01/23 05:14:11;;;;;;;5.97;3.90;;;;;;;1.51;100.00;103705.38;5000435;28;20188;-46
2023/01/23 05:16:39;;;;;;;6.95;4.03;;;;;;;1.51;100.00;103715.94;4996292;28;20201;-44
2023/01/23 05:19:16;;;;;;;7.63;3.88;;;;;;;1.47;100.00;103720.22;4999878;28;20175;-45
2023/01/23 05:21:42;;;;;;;6.18;3.53;;;;;;;1.51;100.00;103718.59;5007850;28;20192;-47
2023/01/23 05:24:12;;;;;;;8.63;3.50;;;;;;;1.46;100.00;103721.03;4999611;28;20272;-43
2023/01/23 05:26:38;;;;;;;3.83;3.15;;;;;;;1.47;100.00;103720.22;4997455;28;20288;-45
2023/01/23 05:29:04;;;;;;;8.55;3.35;;;;;;;1.47;100.00;103712.28;4998630;28;20272;-47
2023/01/23 05:31:31;;;;;;;7.63;3.25;;;;;;;1.45;100.00;103719.25;4998716;28;20787;-45
2023/01/23 05:34:19;;;;;;;5.22;3.13;;;;;;;1.47;100.00;103722.84;4991998;28;20193;-45
2023/01/23 05:36:45;;;;;;;6.85;3.92;;;;;;;1.44;100.00;103723.63;4999194;28;20314;-43
2023/01/23 05:39:10;;;;;;;8.85;4.22;;;;;;;1.44;100.00;103725.34;4992943;28;20188;-45
2023/01/23 05:41:36;;;;;;;6.32;3.92;;;;;;;1.43;100.00;103723.53;4992710;28;20712;-44
2023/01/23 05:44:37;;;;;;;9.98;4.55;;;;;;;1.40;100.00;103728.66;4940697;29;20373;-47
2023/01/23 05:47:08;;;;;;;8.38;5.82;;;;;;;1.32;100.00;103725.69;4984994;28;20201;-47
2023/01/23 05:49:33;;;;;;;7.65;4.60;;;;;;;1.34;100.00;103720.47;4999006;28;20203;-46
2023/01/23 05:51:59;;;;;;;6.53;4.68;;;;;;;1.29;100.00;103725.56;5000147;28;20664;-44
2023/01/23 05:54:26;;;;;;;7.22;4.40;;;;;;;1.25;100.00;103723.59;4999366;28;20168;-43
2023/01/23 05:56:51;;;;;;;8.20;4.72;;;;;;;1.22;100.00;103723.44;5003106;28;20216;-43
2023/01/23 05:59:35;;;;;;;5.53;4.60;;;;;;;1.21;100.00;103729.56;4999220;28;20207;-47
2023/01/23 06:02:21;;;;;;;6.93;4.47;;;;;;;1.23;100.00;103728.81;4997341;28;20437;-45
2023/01/23 06:05:25;;;;;;;6.15;4.25;;;;;;;1.28;100.00;103741.31;4982298;28;20181;-43
2023/01/23 06:08:01;;;;;;;11.07;4.80;;;;;;;1.22;100.00;103734.94;4980590;28;20185;-47
2023/01/23 06:10:26;;;;;;;5.60;4.40;;;;;;;1.26;100.00;103740.34;4986402;28;20203;-45
2023/01/23 06:12:52;;;;;;;5.18;4.32;;;;;;;1.17;100.00;103730.25;5003333;28;20189;-47
2023/01/23 06:15:17;;;;;;;5.03;4.20;;;;;;;1.10;100.00;103747.53;4998820;28;20271;-42
2023/01/23 06:17:44;;;;;;;3.78;3.47;;;;;;;1.00;100.00;103745.28;5002131;28;20204;-45
2023/01/23 06:20:11;;;;;;;4.70;3.72;;;;;;;0.96;100.00;103740.66;5001660;28;20201;-48
2023/01/23 06:22:38;;;;;;;4.53;3.67;;;;;;;0.95;100.00;103741.53;5010544;28;20180;-46
2023/01/23 06:25:09;;;;;;;4.72;3.42;;;;;;;0.94;100.00;103739.69;5003583;28;20263;-44
2023/01/23 06:27:34;;;;;;;3.97;3.60;;;;;;;0.89;100.00;103738.56;5000673;28;20189;-45
2023/01/23 06:30:04;;;;;;;3.67;3.38;;;;;;;0.92;100.00;103739.66;5017929;28;20192;-44
2023/01/23 06:32:33;;;;;;;5.05;3.95;;;;;;;0.97;100.00;103747.78;5003683;28;20184;-44
2023/01/23 06:34:58;;;;;;;4.95;4.13;;;;;;;0.99;100.00;103749.66;5001324;28;20652;-47
2023/01/23 06:37:24;;;;;;;4.55;3.60;;;;;;;1.02;100.00;103743.63;5005209;28;20295;-43
2023/01/23 06:39:49;;;;;;;4.45;4.03;;;;;;;1.02;100.00;103733.06;5000761;28;20173;-44
2023/01/23 06:42:15;;;;;;;4.95;4.28;;;;;;;1.01;100.00;103741.81;5001627;28;20192;-43
2023/01/23 06:44:46;;;;;;;4.15;3.58;;;;;;;1.04;100.00;103752.50;5002441;28;20174;-44
2023/01/23 06:47:12;;;;;;;5.03;4.53;;;;;;;1.08;100.00;103743.91;5002548;28;20576;-48
2023/01/23 06:49:40;;;;;;;6.40;4.10;;;;;;;1.05;100.00;103750.78;5000096;28;20271;-43
2023/01/23 06:52:06;;;;;;;5.35;4.50;;;;;;;1.07;100.00;103760.56;5001739;28;20342;-44
2023/01/23 06:54:31;;;;;;;5.22;4.40;;;;;;;1.09;100.00;103758.00;5000619;28;20259;-45
2023/01/23 06:57:00;;;;;;;4.90;4.40;;;;;;;0.97;100.00;103753.97;5002788;28;20776;-47
2023/01/23 06:59:26;;;;;;;4.78;4.20;;;;;;;1.00;100.00;103763.75;5004670;28;20196;-43
2023/01/23 07:01:51;;;;;;;5.85;5.20;;;;;;;0.99;100.00;103770.78;5015598;28;20179;-47
2023/01/23 07:04:37;;;;;;;6.38;4.40;;;;;;;1.05;100.00;103764.91;5002219;28;20197;-48
2023/01/23 07:07:04;;;;;;;6.15;4.95;;;;;;;1.08;100.00;103762.41;5007180;28;20579;-45
2023/01/23 07:09:30;;;;;;;6.40;5.18;;;;;;;1.09;100.00;103774.75;4990019;28;20608;-46
2023/01/23 07:12:05;;;;;;;7.03;4.60;;;;;;;1.05;100.00;103787.72;4996500;28;20234;-46
2023/01/23 07:14:31;;;;;;;4.72;4.10;;;;;;;1.13;100.00;103782.00;4996163;28;20292;-45
2023/01/23 07:16:56;;;;;;;5.88;4.30;;;;;;;1.07;100.00;103789.63;5003599;28;20296;-46
2023/01/23 07:19:23;;;;;;;4.78;4.38;;;;;;;1.15;100.00;103785.63;5016474;28;20185;-45
2023/01/23 07:21:48;;;;;;;5.63;4.72;;;;;;;1.14;100.00;103797.03;5001679;28;20185;-43
2023/01/23 07:24:14;;;;;;;6.65;5.57;;;;;;;1.17;100.00;103799.81;5003671;28;20198;-46
2023/01/23 07:26:39;;;;;;;11.50;7.30;;;;;;;1.18;100.00;103799.00;5001339;28;20216;-45
2023/01/23 07:29:07;;;;;;;9.85;7.72;;;;;;;1.12;100.00;103790.78;5000668;28;20189;-45
2023/01/23 07:31:33;;;;;;;8.55;6.63;;;;;;;1.16;100.00;103800.66;4998319;28;20643;-46
2023/01/23 07:34:00;;;;;;;6.90;6.20;;;;;;;1.14;100.00;103804.94;5000427;28;20627;-43
2023/01/23 07:36:27;;;;;;;8.18;5.97;;;;;;;1.20;100.00;103804.31;5003307;28;20220;-49
2023/01/23 07:38:52;;;;;;;8.13;6.22;;;;;;;1.21;100.00;103814.97;5001434;28;20213;-48
2023/01/23 07:41:18;;;;;;;8.25;6.57;;;;;;;1.23;100.00;103821.22;5003046;28;20239;-47
2023/01/23 07:43:43;;;;;;;36.58;19.02;;;;;;;1.23;100.00;103821.22;5003200;28;20177;-50
2023/01/23 07:46:09;;;;;;;22.38;13.20;;;;;;;1.17;100.00;103826.22;4995795;28;20668;-48
2023/01/23 07:48:37;;;;;;;15.82;10.93;;;;;;;1.20;100.00;103826.38;4999506;28;20208;-48
2023/01/23 07:51:04;;;;;;;13.32;9.02;;;;;;;1.24;100.00;103830.94;4998797;28;20181;-47
2023/01/23 07:53:30;;;;;;;9.93;8.77;;;;;;;1.23;100.00;103831.81;5011339;28;20188;-47
2023/01/23 07:55:56;;;;;;;15.20;10.45;;;;;;;1.21;100.00;103838.75;5008423;28;20188;-48
2023/01/23 07:58:21;;;;;;;13.23;9.20;;;;;;;1.26;100.00;103852.16;4996685;28;20237;-48
2023/01/23 08:00:47;;;;;;;10.52;8.45;;;;;;;1.28;100.00;103854.88;4995057;28;20184;-49
2023/01/23 08:03:13;;;;;;;13.57;10.07;;;;;;;1.24;100.00;103854.72;4997467;28;20228;-47
2023/01/23 08:05:38;;;;;;;12.85;8.20;;;;;;;1.22;100.00;103853.78;5013009;28;20181;-50
2023/01/23 08:08:04;;;;;;;13.05;8.68;;;;;;;1.29;100.00;103857.63;4998746;28;20664;-48
2023/01/23 08:10:29;;;;;;;11.52;8.07;;;;;;;1.29;100.00;103859.34;4999969;28;20601;-48
2023/01/23 08:12:55;;;;;;;9.68;8.07;;;;;;;1.26;100.00;103856.56;5000333;28;20226;-49
2023/01/23 08:15:20;;;;;;;11.13;7.95;;;;;;;1.31;100.00;103855.97;5000441;28;20193;-48
2023/01/23 08:17:46;;;;;;;10.25;7.22;;;;;;;1.35;100.00;103851.72;5000155;28;20598;-47
2023/01/23 08:20:11;;;;;;;8.25;6.72;;;;;;;1.31;100.00;103849.75;4999518;28;20208;-49
2023/01/23 08:22:39;;;;;;;7.07;6.35;;;;;;;1.24;100.00;103854.72;5003676;28;20311;-48
2023/01/23 08:25:09;;;;;;;7.45;6.50;;;;;;;1.22;100.00;103859.06;4997840;28;20267;-47
2023/01/23 08:27:36;;;;;;;6.65;5.95;;;;;;;1.18;100.00;103872.94;4997490;28;20204;-48
2023/01/23 08:30:02;;;;;;;9.45;6.72;;;;;;;1.19;100.00;103868.56;4996798;28;20226;-42
2023/01/23 08:32:27;;;;;;;6.28;5.68;;;;;;;1.27;100.00;103866.28;5000244;28;20907;-42
2023/01/23 08:34:54;;;;;;;5.78;5.25;;;;;;;1.32;100.00;103873.59;4995765;28;20192;-41
2023/01/23 08:37:19;;;;;;;5.93;5.35;;;;;;;1.30;100.00;103869.97;5001678;28;20220;-43
2023/01/23 08:39:45;;;;;;;5.85;5.30;;;;;;;1.29;100.00;103870.81;4996569;28;20180;-40
2023/01/23 08:42:10;;;;;;;5.72;4.85;;;;;;;1.34;100.00;103864.03;5009261;28;20184;-41
2023/01/23 08:44:36;;;;;;;5.18;4.68;;;;;;;1.36;100.00;103861.47;5010787;28;20648;-43
2023/01/23 08:47:02;;;;;;;5.07;4.63;;;;;;;1.35;100.00;103857.88;4999419;28;20279;-42
2023/01/23 08:49:27;;;;;;;5.80;5.18;;;;;;;1.39;100.00;103864.25;5004050;28;20189;-41
2023/01/23 08:51:53;;;;;;;5.57;5.00;;;;;;;1.47;100.00;103867.28;4998359;28;20195;-43
2023/01/23 08:54:18;;;;;;;5.63;5.13;;;;;;;1.41;100.00;103866.13;4998083;28;20204;-44
2023/01/23 08:56:44;;;;;;;7.32;6.00;;;;;;;1.34;100.00;103871.94;4999870;28;20672;-41
2023/01/23 08:59:09;;;;;;;7.35;5.43;;;;;;;1.40;100.00;103866.03;4997506;28;20260;-41
2023/01/23 09:01:35;;;;;;;9.65;6.40;;;;;;;1.44;100.00;103879.50;4998798;28;20272;-43
2023/01/23 09:04:00;;;;;;;13.73;8.45;;;;;;;1.42;100.00;103867.03;4998328;28;20262;-41
2023/01/23 09:06:26;;;;;;;11.98;8.05;;;;;;;1.49;100.00;103874.44;4999678;28;20204;-43
2023/01/23 09:08:51;;;;;;;13.07;9.68;;;;;;;1.49;100.00;103878.78;4995565;28;20176;-42
2023/01/23 09:11:17;;;;;;;13.18;9.23;;;;;;;1.52;100.00;103884.25;4997778;28;20220;-43
2023/01/23 09:13:44;;;;;;;9.82;7.80;;;;;;;1.54;100.00;103877.28;4995354;28;20553;-42
2023/01/23 09:16:10;;;;;;;11.10;7.85;;;;;;;1.55;100.00;103865.88;4995992;28;20208;-42
2023/01/23 09:18:36;;;;;;;7.68;6.90;;;;;;;1.52;100.00;103871.03;4998892;28;20288;-43
2023/01/23 09:21:10;;;;;;;9.82;8.00;;;;;;;1.49;100.00;103882.38;4996407;28;20529;-42
2023/01/23 09:23:35;;;;;;;10.80;8.40;;;;;;;1.40;100.00;103879.25;4997396;28;20231;-43
2023/01/23 09:26:03;;;;;;;7.80;6.90;;;;;;;1.51;100.00;103885.97;4996645;28;20205;-41
2023/01/23 09:28:29;;;;;;;7.68;6.57;;;;;;;1.53;100.00;103876.41;5003402;28;20176;-41
2023/01/23 09:30:54;;;;;;;9.23;7.63;;;;;;;1.44;100.00;103873.28;5000164;28;20212;-44
2023/01/23 09:33:23;;;;;;;7.72;6.93;;;;;;;1.47;100.00;103872.56;4997366;28;20194;-42
2023/01/23 09:35:52;;;;;;;8.25;7.45;;;;;;;1.43;100.00;103868.84;5002862;28;20187;-44
2023/01/23 09:38:18;;;;;;;8.45;7.15;;;;;;;1.44;100.00;103866.28;5000166;28;20754;-42
2023/01/23 09:40:49;;;;;;;8.18;6.95;;;;;;;1.56;100.00;103860.69;4997970;28;20178;-41
2023/01/23 09:43:23;;;;;;;12.45;8.50;;;;;;;1.58;100.00;103866.94;5005968;28;20276;-43
2023/01/23 09:46:06;;;;;;;7.95;7.05;;;;;;;1.63;100.00;103859.22;5009216;28;20172;-44
2023/01/23 09:48:57;;;;;;;10.73;8.10;;;;;;;1.69;100.00;103869.19;5004794;28;20641;-40
2023/01/23 09:51:22;;;;;;;9.65;7.88;;;;;;;1.59;100.00;103866.09;5003574;28;20636;-43
2023/01/23 09:53:50;;;;;;;10.18;8.75;;;;;;;1.56;100.00;103862.41;5003182;28;20181;-43
2023/01/23 09:56:34;;;;;;;9.20;8.02;;;;;;;1.52;100.00;103858.72;5004386;28;20255;-44
2023/01/23 09:59:26;;;;;;;10.75;9.68;;;;;;;1.57;100.00;103862.47;5000955;28;20278;-43
2023/01/23 10:01:52;;;;;;;10.25;9.15;;;;;;;1.60;100.00;103860.00;5009785;28;20351;-42
2023/01/23 10:04:19;;;;;;;12.93;8.98;;;;;;;1.58;100.00;103860.75;4999646;28;20642;-43
2023/01/23 10:06:53;;;;;;;10.00;8.52;;;;;;;1.65;100.00;103860.22;4997427;28;20196;-41
2023/01/23 10:10:02;;;;;;;13.40;9.82;;;;;;;1.72;100.00;103858.75;5005406;28;20207;-41
2023/01/23 10:13:02;;;;;;;18.33;12.98;;;;;;;1.75;100.00;103865.09;4961436;28;20197;-42
2023/01/23 10:15:29;;;;;;;12.25;9.45;;;;;;;1.79;100.00;103852.91;5013861;28;20799;-42
2023/01/23 10:18:13;;;;;;;10.48;9.45;;;;;;;1.84;100.00;103848.78;5002278;28;20243;-43
2023/01/23 10:20:50;;;;;;;16.75;10.82;;;;;;;1.93;100.00;103859.78;5002701;28;20271;-42
2023/01/23 10:23:18;;;;;;;12.13;10.27;;;;;;;2.00;100.00;103868.88;4997840;28;20716;-42
2023/01/23 10:25:44;;;;;;;13.35;11.20;;;;;;;1.97;100.00;103860.81;5005876;28;20173;-42
2023/01/23 10:28:37;;;;;;;13.65;11.38;;;;;;;2.02;100.00;103854.91;5005927;28;20859;-44
2023/01/23 10:31:23;;;;;;;13.20;10.65;;;;;;;2.07;100.00;103873.63;5003639;28;20189;-44
2023/01/23 10:34:01;;;;;;;12.88;10.82;;;;;;;2.00;100.00;103872.44;5004150;28;20180;-41
2023/01/23 10:36:34;;;;;;;13.95;11.10;;;;;;;2.11;100.00;103857.06;5004711;28;20583;-43
2023/01/23 10:39:05;;;;;;;12.93;10.02;;;;;;;2.09;100.00;103863.13;5003086;28;20202;-42
2023/01/23 10:41:32;;;;;;;14.85;11.52;;;;;;;2.16;100.00;103860.81;5002067;28;20275;-43
2023/01/23 10:43:59;;;;;;;13.45;10.27;;;;;;;2.08;100.00;103848.06;5008547;28;20209;-43
2023/01/23 10:46:32;;;;;;;11.68;10.40;;;;;;;1.98;100.00;103867.91;5006669;28;20274;-43
2023/01/23 10:49:00;;;;;;;12.88;10.07;;;;;;;2.13;100.00;103863.31;5003616;28;20241;-44
2023/01/23 10:51:44;;;;;;;14.23;11.32;;;;;;;2.16;100.00;103855.50;4999394;28;20686;-43
2023/01/23 10:54:19;;;;;;;13.15;11.13;;;;;;;2.19;100.00;103854.78;5000726;28;20181;-45
2023/01/23 10:56:48;;;;;;;14.52;11.52;;;;;;;2.17;100.00;103861.75;4998827;28;20204;-42
2023/01/23 10:59:26;;;;;;;14.40;11.55;;;;;;;2.28;100.00;103864.88;5002474;28;20652;-43
2023/01/23 11:02:02;;;;;;;16.25;10.98;;;;;;;2.24;100.00;103867.34;4998479;28;20203;-44
2023/01/23 11:04:34;;;;;;;13.70;11.80;;;;;;;2.20;100.00;103862.75;5002640;28;20203;-44
2023/01/23 11:07:19;;;;;;;14.65;11.48;;;;;;;2.19;100.00;103862.72;4997065;28;20216;-49
2023/01/23 11:09:50;;;;;;;13.77;11.25;;;;;;;2.23;100.00;103868.22;4997548;28;20219;-49
2023/01/23 11:12:22;;;;;;;12.18;10.63;;;;;;;2.17;100.00;103867.03;5000516;28;20517;-48
2023/01/23 11:14:48;;;;;;;14.27;11.43;;;;;;;2.31;100.00;103873.81;5002313;28;20648;-47
2023/01/23 11:17:25;;;;;;;13.75;11.18;;;;;;;2.21;100.00;103864.59;5004126;28;20261;-46
2023/01/23 11:19:53;;;;;;;12.15;10.18;;;;;;;2.34;100.00;103875.69;5001055;28;20189;-48
2023/01/23 11:22:30;;;;;;;13.93;11.48;;;;;;;2.32;100.00;103875.66;5000443;28;20544;-47
2023/01/23 11:24:56;;;;;;;18.60;11.70;;;;;;;2.29;100.00;103874.59;4991848;28;20192;-48
2023/01/23 11:27:30;;;;;;;13.15;11.38;;;;;;;2.32;100.00;103859.78;4998986;28;20195;-46
2023/01/23 11:30:23;;;;;;;13.70;11.10;;;;;;;2.24;100.00;103869.09;5001731;28;20552;-47
2023/01/23 11:32:55;;;;;;;17.38;11.45;;;;;;;2.18;100.00;103876.75;5006925;28;20176;-47
2023/01/23 11:35:42;;;;;;;12.80;10.70;;;;;;;2.31;100.00;103870.28;5000356;28;20240;-48
2023/01/23 11:38:15;;;;;;;15.77;12.82;;;;;;;2.36;100.00;103877.59;5000138;28;20430;-49